Time;durP1;ratioP1;P1;durP2;ratioP2;P2;SDS_P1;SDS_P2;PMS_P1;PMS_P2;Temp;Humidity;BMP_temperature;BMP_pressure;BME280_temperature;BME280_humidity;BME280_pressure;Samples;Min_cycle;Max_cycle;Signal;HPM_P1;HPM_P2
2022/05/22 00:01:40;;;;;;;1999.90;999.90;;;8.00;99.90;;;;;;5050190;28;20036;-76
2022/05/22 00:04:06;;;;;;;1999.90;999.90;;;8.00;99.90;;;;;;5061422;28;20044;-76
2022/05/22 00:06:32;;;;;;;1999.90;999.90;;;8.00;99.90;;;;;;5070287;28;20044;-76
2022/05/22 00:08:58;;;;;;;1999.90;999.90;;;7.90;99.90;;;;;;5054444;28;20070;-76
2022/05/22 00:11:23;;;;;;;1999.90;999.90;;;7.90;99.90;;;;;;5063063;28;20501;-76
2022/05/22 00:13:50;;;;;;;1999.90;999.90;;;7.90;99.90;;;;;;5053203;28;20127;-76
2022/05/22 00:19:00;;;;;;;1999.90;999.90;;;7.80;99.90;;;;;;5062127;28;20036;-76
2022/05/22 00:21:26;;;;;;;1999.90;999.90;;;7.80;99.90;;;;;;5058798;28;20036;-76
2022/05/22 00:23:52;;;;;;;1999.90;999.90;;;7.80;99.90;;;;;;5082037;28;20517;-76
2022/05/22 00:26:18;;;;;;;1999.90;999.90;;;7.80;99.90;;;;;;5052709;28;20059;-76
2022/05/22 00:28:43;;;;;;;1999.90;999.90;;;7.70;99.90;;;;;;5070852;28;20036;-76
2022/05/22 00:31:09;;;;;;;1999.90;999.90;;;7.70;99.90;;;;;;5069421;28;20123;-76
2022/05/22 00:33:35;;;;;;;1999.90;999.90;;;7.70;99.90;;;;;;5063415;28;20083;-76
2022/05/22 00:36:01;;;;;;;1999.90;999.90;;;7.60;99.90;;;;;;5052727;28;20032;-76
2022/05/22 00:38:26;;;;;;;1999.90;999.90;;;7.60;99.90;;;;;;5066286;28;20037;-76
2022/05/22 00:40:52;;;;;;;1999.90;999.90;;;7.60;99.90;;;;;;5052830;28;20044;-76
2022/05/22 00:43:25;;;;;;;1999.90;999.90;;;7.60;99.90;;;;;;5043316;28;20830;-76
2022/05/22 00:45:50;;;;;;;1999.90;999.90;;;7.50;99.90;;;;;;5041491;28;20115;-76
2022/05/22 00:48:16;;;;;;;1999.90;999.90;;;7.50;99.90;;;;;;5078934;28;20513;-76
2022/05/22 00:50:42;;;;;;;1999.90;999.90;;;7.50;99.90;;;;;;5070624;28;20436;-76
2022/05/22 00:53:08;;;;;;;1999.90;999.90;;;7.50;99.90;;;;;;5052488;28;20048;-76
2022/05/22 00:55:34;;;;;;;1999.90;999.90;;;7.40;99.90;;;;;;5082758;28;20055;-76
2022/05/22 00:58:06;;;;;;;1999.90;999.90;;;7.50;99.90;;;;;;5043469;28;20044;-76
2022/05/22 01:00:35;;;;;;;1999.90;999.90;;;7.50;99.90;;;;;;5050873;28;20036;-76
2022/05/22 01:05:50;;;;;;;1999.90;999.90;;;7.50;99.90;;;;;;5059994;28;20051;-76
2022/05/22 01:08:15;;;;;;;1999.90;999.90;;;7.50;99.90;;;;;;5036936;28;20048;-76
2022/05/22 01:10:51;;;;;;;1999.90;999.90;;;7.40;99.90;;;;;;5071393;28;20040;-77
2022/05/22 01:13:27;;;;;;;1999.90;999.90;;;7.40;99.90;;;;;;5038379;28;20560;-77
2022/05/22 01:15:53;;;;;;;1999.90;999.90;;;7.40;99.90;;;;;;5055473;28;20071;-76
2022/05/22 01:18:19;;;;;;;1999.90;999.90;;;7.30;99.90;;;;;;5052163;28;20079;-76
2022/05/22 01:20:50;;;;;;;1999.90;999.90;;;7.30;99.90;;;;;;5067772;28;20036;-76
2022/05/22 01:23:17;;;;;;;1999.90;999.90;;;7.30;99.90;;;;;;5035883;28;20136;-77
2022/05/22 01:25:43;;;;;;;1999.90;999.90;;;7.20;99.90;;;;;;5051688;28;20094;-77
2022/05/22 01:28:11;;;;;;;1999.90;999.90;;;7.20;99.90;;;;;;5059300;28;20045;-76
2022/05/22 01:30:36;;;;;;;1999.90;999.90;;;7.20;99.90;;;;;;5035921;28;20497;-76
2022/05/22 01:33:02;;;;;;;1999.90;999.90;;;7.30;99.90;;;;;;5063653;28;20043;-76
2022/05/22 01:35:29;;;;;;;1999.90;999.90;;;7.30;99.90;;;;;;5081539;28;20043;-76
2022/05/22 01:37:55;;;;;;;1999.90;999.90;;;7.30;99.90;;;;;;5052586;28;20044;-76
2022/05/22 01:40:21;;;;;;;1999.90;999.90;;;7.30;99.90;;;;;;5079405;28;20402;-76
2022/05/22 01:42:47;;;;;;;1999.90;999.90;;;7.20;99.90;;;;;;5069707;28;20094;-76
2022/05/22 01:45:17;;;;;;;1999.90;999.90;;;7.20;99.90;;;;;;5035413;28;20519;-76
2022/05/22 01:47:43;;;;;;;1999.90;999.90;;;7.20;99.90;;;;;;5075285;28;20118;-76
2022/05/22 01:50:09;;;;;;;1999.90;999.90;;;7.10;99.90;;;;;;5036047;28;20127;-77
2022/05/22 01:52:35;;;;;;;1999.90;999.90;;;7.10;99.90;;;;;;5044280;28;20075;-76
2022/05/22 01:55:01;;;;;;;1999.90;999.90;;;7.10;99.90;;;;;;5049596;28;20505;-77
2022/05/22 01:57:29;;;;;;;1999.90;999.90;;;7.00;99.90;;;;;;5077002;28;20123;-77
2022/05/22 01:59:55;;;;;;;1999.90;999.90;;;7.00;99.90;;;;;;5051266;28;20522;-77
2022/05/22 02:02:20;;;;;;;1999.90;999.90;;;6.90;99.90;;;;;;5038845;28;20040;-77
2022/05/22 02:04:46;;;;;;;1999.90;999.90;;;6.90;99.90;;;;;;5056539;28;20090;-76
2022/05/22 02:09:56;;;;;;;1999.90;999.90;;;6.90;99.90;;;;;;5062863;28;20047;-76
2022/05/22 02:12:22;;;;;;;1999.90;999.90;;;6.90;99.90;;;;;;5077821;28;20037;-76
2022/05/22 02:14:48;;;;;;;1999.90;999.90;;;6.90;99.90;;;;;;5043958;28;20032;-76
2022/05/22 02:17:13;;;;;;;1999.90;999.90;;;6.90;99.90;;;;;;5076329;28;20483;-76
2022/05/22 02:19:39;;;;;;;1999.90;999.90;;;6.90;99.90;;;;;;5051715;28;20094;-76
2022/05/22 02:22:04;;;;;;;1999.90;999.90;;;6.90;99.90;;;;;;5076574;28;20032;-76
2022/05/22 02:24:30;;;;;;;1999.90;999.90;;;6.90;99.90;;;;;;5042705;28;20055;-76
2022/05/22 02:26:56;;;;;;;1999.90;999.90;;;6.90;99.90;;;;;;5052129;28;20036;-76
2022/05/22 02:29:21;;;;;;;1999.90;999.90;;;6.90;99.90;;;;;;5081100;28;20110;-76
2022/05/22 02:31:47;;;;;;;1999.90;999.90;;;6.90;99.90;;;;;;5076279;28;20044;-76
2022/05/22 02:34:13;;;;;;;1999.90;999.90;;;6.80;99.90;;;;;;5083831;28;20090;-76
2022/05/22 02:36:38;;;;;;;1999.90;999.90;;;6.80;99.90;;;;;;5047873;28;20083;-76
2022/05/22 02:39:04;;;;;;;1999.90;999.90;;;6.80;99.90;;;;;;5043596;28;20125;-76
2022/05/22 02:41:29;;;;;;;1999.90;999.90;;;6.70;99.90;;;;;;5055282;28;20567;-76
2022/05/22 02:43:55;;;;;;;1999.90;999.90;;;6.70;99.90;;;;;;5042447;28;20557;-75
2022/05/22 02:46:21;;;;;;;1999.90;999.90;;;6.70;99.90;;;;;;5049931;28;20047;-76
2022/05/22 02:48:47;;;;;;;1999.90;999.90;;;6.80;99.90;;;;;;5037851;28;20047;-76
2022/05/22 02:51:16;;;;;;;1999.90;999.90;;;6.80;99.90;;;;;;5068847;28;20401;-76
2022/05/22 02:53:42;;;;;;;1999.90;999.90;;;6.80;99.90;;;;;;5069178;28;20429;-76
2022/05/22 02:56:15;;;;;;;1999.90;999.90;;;6.80;99.90;;;;;;5054832;28;20043;-76
2022/05/22 02:58:40;;;;;;;1999.90;999.90;;;6.80;99.90;;;;;;5059665;28;20032;-76
2022/05/22 03:01:06;;;;;;;1999.90;999.90;;;6.80;99.90;;;;;;5035412;28;20456;-76
2022/05/22 03:03:32;;;;;;;1999.90;999.90;;;6.80;99.90;;;;;;5042972;28;20040;-76
2022/05/22 03:08:42;;;;;;;1999.90;999.90;;;6.80;99.90;;;;;;5057881;28;20044;-76
2022/05/22 03:11:08;;;;;;;1999.90;999.90;;;6.80;99.90;;;;;;5071869;28;20509;-76
2022/05/22 03:13:34;;;;;;;1999.90;999.90;;;6.80;99.90;;;;;;5046606;28;20191;-76
2022/05/22 03:16:00;;;;;;;1999.90;999.90;;;6.80;99.90;;;;;;5047025;28;20573;-76
2022/05/22 03:18:26;;;;;;;1999.90;999.90;;;6.80;99.90;;;;;;5036494;28;20037;-76
2022/05/22 03:20:52;;;;;;;1999.90;999.90;;;6.80;99.90;;;;;;5052000;28;20037;-75
2022/05/22 03:23:18;;;;;;;1999.90;999.90;;;6.70;99.90;;;;;;5078090;28;20060;-75
2022/05/22 03:25:49;;;;;;;1999.90;999.90;;;6.70;99.90;;;;;;5042496;28;20120;-75
2022/05/22 03:28:16;;;;;;;1999.90;999.90;;;6.70;99.90;;;;;;5039698;28;20044;-75
2022/05/22 03:30:43;;;;;;;1999.90;999.90;;;6.70;99.90;;;;;;5035239;28;20051;-75
2022/05/22 03:33:09;;;;;;;1999.90;999.90;;;6.70;99.90;;;;;;5034081;28;20048;-76
2022/05/22 03:35:35;;;;;;;1999.90;999.90;;;6.70;99.90;;;;;;5031038;28;20051;-76
2022/05/22 03:38:04;;;;;;;1999.90;999.90;;;6.70;99.90;;;;;;5047287;28;20037;-76
2022/05/22 03:40:30;;;;;;;1999.90;999.90;;;6.60;99.90;;;;;;5046165;28;20037;-76
2022/05/22 03:42:56;;;;;;;1999.90;999.90;;;6.60;99.90;;;;;;5059123;28;20064;-76
2022/05/22 03:45:21;;;;;;;1999.90;999.90;;;6.70;99.90;;;;;;5052565;28;20037;-76
2022/05/22 03:47:47;;;;;;;1999.90;999.90;;;6.70;99.90;;;;;;5053883;28;20041;-76
2022/05/22 03:50:14;;;;;;;1999.90;999.90;;;6.70;99.90;;;;;;5039147;28;20041;-76
2022/05/22 03:52:43;;;;;;;1999.90;999.90;;;6.80;99.90;;;;;;5054670;28;20029;-76
2022/05/22 03:55:12;;;;;;;1999.90;999.90;;;6.80;99.90;;;;;;5046461;28;20467;-76
2022/05/22 03:57:38;;;;;;;1999.90;999.90;;;6.90;99.90;;;;;;5051791;28;20045;-76
2022/05/22 04:00:07;;;;;;;1999.90;999.90;;;6.90;99.90;;;;;;5065465;28;20412;-76
2022/05/22 04:02:33;;;;;;;1999.90;999.90;;;7.00;99.90;;;;;;5057591;28;20040;-76
2022/05/22 04:04:59;;;;;;;1999.90;999.90;;;7.00;99.90;;;;;;5053251;28;20078;-76
2022/05/22 04:07:25;;;;;;;1999.90;999.90;;;7.10;99.90;;;;;;5059472;28;20040;-76
2022/05/22 04:09:50;;;;;;;1999.90;999.90;;;7.10;99.90;;;;;;5043260;28;20045;-76
2022/05/22 04:12:16;;;;;;;1999.90;999.90;;;7.20;99.90;;;;;;5079529;28;20041;-76
2022/05/22 04:14:41;;;;;;;1999.90;999.90;;;7.30;99.90;;;;;;5071111;28;20037;-76
2022/05/22 04:17:07;;;;;;;1999.90;999.90;;;7.50;99.90;;;;;;5049074;28;20053;-76
2022/05/22 04:19:33;;;;;;;1999.90;999.90;;;7.70;99.90;;;;;;5045536;28;20051;-76
2022/05/22 04:21:58;;;;;;;1999.90;999.90;;;7.90;99.90;;;;;;5035036;28;20481;-76
2022/05/22 04:27:08;;;;;;;1999.90;999.90;;;7.90;99.90;;;;;;5055881;28;20055;-76
2022/05/22 04:29:35;;;;;;;1999.90;999.90;;;7.90;99.90;;;;;;5068711;28;20063;-76
2022/05/22 04:32:02;;;;;;;1999.90;999.90;;;8.00;99.90;;;;;;5060259;28;20044;-76
2022/05/22 04:34:28;;;;;;;1999.90;999.90;;;8.00;99.90;;;;;;5060381;28;20032;-76
2022/05/22 04:36:54;;;;;;;1999.90;999.90;;;8.10;99.90;;;;;;5062845;28;20093;-76
2022/05/22 04:39:19;;;;;;;1999.90;999.90;;;8.20;99.90;;;;;;5053560;28;20044;-76
2022/05/22 04:41:45;;;;;;;1999.90;999.90;;;8.30;99.90;;;;;;5053685;28;20098;-76
2022/05/22 04:44:10;;;;;;;1999.90;999.90;;;8.40;99.90;;;;;;5065722;28;20036;-76
2022/05/22 04:46:36;;;;;;;1999.90;999.90;;;8.50;99.90;;;;;;5068854;28;20133;-76
2022/05/22 04:49:02;;;;;;;1999.90;999.90;;;8.50;99.90;;;;;;5061352;28;20048;-76
2022/05/22 04:51:27;;;;;;;1999.90;999.90;;;8.60;99.90;;;;;;5054171;28;20123;-76
2022/05/22 04:53:53;;;;;;;1999.90;999.90;;;8.70;99.90;;;;;;5058265;28;20043;-76
2022/05/22 04:56:19;;;;;;;1999.90;999.90;;;8.90;99.90;;;;;;5086228;28;20419;-76
2022/05/22 04:58:46;;;;;;;1999.90;999.90;;;9.00;99.90;;;;;;5042205;28;20493;-76
2022/05/22 05:01:12;;;;;;;1999.90;999.90;;;9.10;99.90;;;;;;5053233;28;20143;-76
2022/05/22 05:03:38;;;;;;;1999.90;999.90;;;9.20;99.90;;;;;;5048883;28;20084;-76
2022/05/22 05:06:04;;;;;;;1999.90;999.90;;;9.30;99.90;;;;;;5052654;28;20040;-76
2022/05/22 05:08:30;;;;;;;1999.90;999.90;;;9.40;99.90;;;;;;5048809;28;20412;-76
2022/05/22 05:10:57;;;;;;;1999.90;999.90;;;9.60;99.90;;;;;;5066496;28;20467;-76
2022/05/22 05:13:24;;;;;;;1999.90;999.90;;;9.70;99.90;;;;;;5047826;28;20047;-76
2022/05/22 05:16:08;;;;;;;1999.90;999.90;;;9.80;99.90;;;;;;5055650;28;20075;-76
2022/05/22 05:18:35;;;;;;;1999.90;999.90;;;10.20;99.90;;;;;;5059344;28;20076;-76
2022/05/22 05:21:03;;;;;;;1999.90;999.90;;;10.40;99.90;;;;;;5050499;28;20032;-76
2022/05/22 05:23:29;;;;;;;1999.90;999.90;;;10.50;99.90;;;;;;5048243;28;20049;-76
2022/05/22 05:25:55;;;;;;;1999.90;999.90;;;10.60;99.90;;;;;;5078789;28;20079;-76
2022/05/22 05:28:21;;;;;;;1999.90;999.90;;;10.70;99.90;;;;;;5059936;28;20544;-76
2022/05/22 05:30:46;;;;;;;1999.90;999.90;;;10.80;99.90;;;;;;5049179;28;20120;-76
2022/05/22 05:33:12;;;;;;;1999.90;999.90;;;11.00;99.90;;;;;;5035009;28;20110;-76
2022/05/22 05:35:38;;;;;;;1999.90;999.90;;;11.20;99.90;;;;;;5051593;28;20036;-76
2022/05/22 05:38:03;;;;;;;1999.90;999.90;;;12.10;99.90;;;;;;5031530;28;20048;-75
2022/05/22 05:40:29;;;;;;;1999.90;999.90;;;13.00;99.90;;;;;;5070220;28;20525;-76
2022/05/22 05:42:55;;;;;;;1999.90;999.90;;;14.00;99.90;;;;;;5062893;28;20131;-77
2022/05/22 05:45:21;;;;;;;1999.90;999.90;;;14.80;99.90;;;;;;5057371;28;20120;-76
2022/05/22 05:47:47;;;;;;;1999.90;999.90;;;15.50;99.90;;;;;;5047882;28;20033;-76
2022/05/22 05:50:16;;;;;;;1999.90;999.90;;;15.80;99.90;;;;;;5050997;28;20126;-76
2022/05/22 05:52:42;;;;;;;1999.90;999.90;;;16.10;99.90;;;;;;5056961;28;20400;-76
2022/05/22 05:55:08;;;;;;;1999.90;999.90;;;16.00;99.90;;;;;;5075956;28;20127;-77
2022/05/22 05:57:34;;;;;;;1999.90;999.90;;;15.70;99.90;;;;;;5052849;28;20516;-76
2022/05/22 05:59:59;;;;;;;1999.90;999.90;;;15.50;99.90;;;;;;5050143;28;20120;-77
2022/05/22 06:02:25;;;;;;;1999.90;999.90;;;16.00;99.90;;;;;;5043833;28;20403;-76
2022/05/22 06:04:51;;;;;;;1999.90;999.90;;;16.60;99.90;;;;;;5058316;28;20347;-77
2022/05/22 06:07:17;;;;;;;1999.90;999.90;;;17.20;99.90;;;;;;5032668;28;20357;-77
2022/05/22 06:09:43;;;;;;;1999.90;999.90;;;17.50;99.90;;;;;;5051507;28;20502;-77
2022/05/22 06:12:08;;;;;;;1999.90;999.90;;;17.70;99.90;;;;;;5076781;28;20045;-77
2022/05/22 06:14:34;;;;;;;1999.90;999.90;;;17.90;99.90;;;;;;5073713;28;20090;-77
2022/05/22 06:17:00;;;;;;;1999.90;999.90;;;17.90;99.90;;;;;;5050212;28;20147;-77
2022/05/22 06:22:15;;;;;;;1999.90;999.90;;;18.40;99.90;;;;;;5056497;28;20491;-78
2022/05/22 06:24:40;;;;;;;1999.90;999.90;;;18.60;99.90;;;;;;5065367;28;20060;-78
2022/05/22 06:27:06;;;;;;;1999.90;999.90;;;18.90;99.90;;;;;;5048454;28;20052;-77
2022/05/22 06:29:31;;;;;;;1999.90;999.90;;;19.30;99.90;;;;;;5051543;28;20478;-78
2022/05/22 06:31:57;;;;;;;1999.90;999.90;;;19.40;99.90;;;;;;5076990;28;20041;-78
2022/05/22 06:34:23;;;;;;;1999.90;999.90;;;19.70;99.90;;;;;;5058736;28;20131;-79
2022/05/22 06:36:52;;;;;;;1999.90;999.90;;;20.00;99.90;;;;;;5047956;28;20056;-78
2022/05/22 06:42:02;;;;;;;1999.90;999.90;;;21.00;99.90;;;;;;5049617;28;20033;-80
2022/05/22 06:44:28;;;;;;;1999.90;999.90;;;21.10;99.90;;;;;;5056386;28;20075;-79
2022/05/22 06:46:54;;;;;;;1999.90;999.90;;;20.70;99.90;;;;;;5030481;28;20072;-79
2022/05/22 06:49:19;;;;;;;1999.90;999.90;;;20.50;99.90;;;;;;5052575;28;20473;-79
2022/05/22 06:51:46;;;;;;;1999.90;999.90;;;20.40;99.90;;;;;;5052117;28;20036;-79
2022/05/22 06:54:12;;;;;;;1999.90;999.90;;;20.70;99.90;;;;;;5032901;28;20053;-79
2022/05/22 06:56:37;;;;;;;1999.90;999.90;;;21.00;99.90;;;;;;5081540;28;20035;-79
2022/05/22 06:59:03;;;;;;;1999.90;999.90;;;21.20;99.90;;;;;;5056737;28;20052;-79
2022/05/22 07:01:29;;;;;;;1999.90;999.90;;;21.30;99.90;;;;;;5060341;28;20055;-78
2022/05/22 07:03:54;;;;;;;1999.90;999.90;;;21.40;99.90;;;;;;5053615;28;20039;-79
2022/05/22 07:06:20;;;;;;;1999.90;999.90;;;21.40;99.90;;;;;;5046918;28;20037;-80
2022/05/22 07:08:45;;;;;;;1999.90;999.90;;;21.40;99.90;;;;;;5076103;28;20076;-79
2022/05/22 07:13:55;;;;;;;1999.90;999.90;;;21.40;99.90;;;;;;5050184;28;20039;-79
2022/05/22 07:16:21;;;;;;;1999.90;999.90;;;21.40;99.90;;;;;;5069928;28;20036;-79
2022/05/22 07:18:46;;;;;;;1999.90;999.90;;;21.60;99.90;;;;;;5053339;28;20052;-78
2022/05/22 07:21:12;;;;;;;1999.90;999.90;;;21.90;99.90;;;;;;5035770;28;20043;-79
2022/05/22 07:23:37;;;;;;;1999.90;999.90;;;22.00;99.90;;;;;;5065086;28;20548;-79
2022/05/22 07:26:05;;;;;;;1999.90;999.90;;;21.80;99.90;;;;;;5053009;28;20033;-79
2022/05/22 07:28:31;;;;;;;1999.90;999.90;;;21.70;99.90;;;;;;5058470;28;20052;-80
2022/05/22 07:30:57;;;;;;;1999.90;999.90;;;21.90;99.90;;;;;;5047898;28;20045;-79
2022/05/22 07:33:23;;;;;;;1999.90;999.90;;;21.80;99.90;;;;;;5035566;28;20055;-79
2022/05/22 07:35:56;;;;;;;1999.90;999.90;;;22.10;99.90;;;;;;5038386;28;20044;-78
2022/05/22 07:38:22;;;;;;;1999.90;999.90;;;22.00;99.90;;;;;;5062338;28;20051;-79
2022/05/22 07:40:49;;;;;;;1999.90;999.90;;;21.50;99.90;;;;;;5050309;28;20470;-79
2022/05/22 07:43:16;;;;;;;1999.90;999.90;;;21.20;99.50;;;;;;5036020;28;20526;-79
2022/05/22 07:45:41;;;;;;;1999.90;999.90;;;20.80;99.90;;;;;;5049956;28;20086;-78
2022/05/22 07:48:07;;;;;;;1999.90;999.90;;;20.70;99.90;;;;;;5060053;28;20608;-79
2022/05/22 07:50:33;;;;;;;1999.90;999.90;;;20.60;99.90;;;;;;5051791;28;20083;-78
2022/05/22 07:52:59;;;;;;;1999.90;999.90;;;20.10;99.90;;;;;;5065375;28;20044;-78
2022/05/22 07:55:24;;;;;;;1999.90;999.90;;;20.30;99.90;;;;;;5067109;28;20043;-79
2022/05/22 07:57:50;;;;;;;1999.90;999.90;;;20.60;99.90;;;;;;5054516;28;20409;-79
2022/05/22 08:00:20;;;;;;;1999.90;999.90;;;20.60;99.90;;;;;;5034298;28;20033;-78
2022/05/22 08:02:47;;;;;;;1999.90;999.90;;;20.60;99.90;;;;;;5050025;28;20487;-79
2022/05/22 08:05:17;;;;;;;1999.90;999.90;;;20.90;99.90;;;;;;5054086;28;20115;-79
2022/05/22 08:07:43;;;;;;;1999.90;999.90;;;20.70;99.90;;;;;;5039560;28;20041;-78
2022/05/22 08:10:10;;;;;;;1999.90;999.90;;;20.10;99.00;;;;;;5032891;28;20433;-79
2022/05/22 08:12:48;;;;;;;1999.90;999.90;;;19.80;99.90;;;;;;5036324;28;20468;-78
2022/05/22 08:15:17;;;;;;;1999.90;999.90;;;19.40;99.90;;;;;;5051313;28;20048;-78
2022/05/22 08:17:43;;;;;;;1999.90;999.90;;;19.10;99.90;;;;;;5053763;28;20120;-78
2022/05/22 08:20:15;;;;;;;1999.90;999.90;;;19.20;99.90;;;;;;5046387;28;20037;-79
2022/05/22 08:22:44;;;;;;;1999.90;999.90;;;19.80;99.90;;;;;;5052026;28;20045;-79
2022/05/22 08:25:16;;;;;;;1999.90;999.90;;;20.40;99.90;;;;;;5084680;28;20046;-78
2022/05/22 08:27:42;;;;;;;1999.90;999.90;;;20.80;99.90;;;;;;5044614;28;20047;-79
2022/05/22 08:30:10;;;;;;;1999.90;999.90;;;21.40;99.90;;;;;;5049446;28;20048;-78
2022/05/22 08:32:37;;;;;;;1999.90;999.90;;;21.80;97.70;;;;;;5070349;28;20362;-78
2022/05/22 08:35:05;;;;;;;1999.90;999.90;;;22.30;98.40;;;;;;5055721;28;20123;-78
2022/05/22 08:37:31;;;;;;;1999.90;999.90;;;22.50;98.20;;;;;;5057067;28;20047;-78
2022/05/22 08:39:57;;;;;;;1999.90;999.90;;;22.50;99.70;;;;;;5041932;28;20405;-79
2022/05/22 08:42:40;;;;;;;1999.90;999.90;;;22.40;96.70;;;;;;5045271;28;20534;-79
2022/05/22 08:45:15;;;;;;;1999.90;999.90;;;22.60;99.60;;;;;;5052953;28;20044;-80
2022/05/22 08:48:05;;;;;;;1999.90;999.90;;;22.90;96.60;;;;;;5075433;28;20062;-79
2022/05/22 08:50:32;;;;;;;1999.90;999.90;;;22.70;94.80;;;;;;5059604;28;20127;-78
2022/05/22 08:53:04;;;;;;;1999.90;999.90;;;22.80;96.00;;;;;;5045763;28;20049;-79
2022/05/22 09:01:46;;;;;;;1999.90;999.90;;;23.20;92.10;;;;;;5084838;28;20048;-78
2022/05/22 09:04:30;;;;;;;1999.90;999.90;;;23.50;92.90;;;;;;5074989;28;20044;-79
2022/05/22 09:07:11;;;;;;;1999.90;999.90;;;23.40;93.50;;;;;;5042464;28;20044;-79
2022/05/22 09:09:39;;;;;;;1999.90;999.90;;;22.50;91.30;;;;;;5034473;28;20596;-79
2022/05/22 09:12:29;;;;;;;1999.90;999.90;;;21.70;90.60;;;;;;5053271;28;20502;-78
2022/05/22 09:15:15;;;;;;;1999.90;999.90;;;22.00;96.70;;;;;;5060376;28;20135;-79
2022/05/22 09:17:56;;;;;;;1999.90;999.90;;;22.60;96.10;;;;;;5064823;28;20044;-80
2022/05/22 09:20:37;;;;;;;1999.90;999.90;;;23.10;94.20;;;;;;5043946;28;20563;-79
2022/05/22 09:23:25;;;;;;;1999.90;999.90;;;23.50;92.20;;;;;;5076666;28;20123;-79
2022/05/22 09:26:03;;;;;;;1999.90;999.90;;;23.60;92.90;;;;;;5064975;28;20465;-79
2022/05/22 09:29:02;;;;;;;1999.90;999.90;;;23.50;88.70;;;;;;5061138;28;20055;-79
2022/05/22 09:31:40;;;;;;;1999.90;999.90;;;23.30;92.10;;;;;;5053502;28;20457;-79
2022/05/22 09:34:21;;;;;;;1999.90;999.90;;;23.40;88.40;;;;;;5067859;28;20123;-78
2022/05/22 09:37:03;;;;;;;1999.90;999.90;;;23.50;91.50;;;;;;5040566;28;20111;-79
2022/05/22 09:39:31;;;;;;;1999.90;999.90;;;23.20;92.30;;;;;;5071310;28;20123;-78
2022/05/22 09:42:00;;;;;;;1999.90;999.90;;;23.30;91.10;;;;;;5069370;28;20139;-78
2022/05/22 09:44:59;;;;;;;1999.90;999.90;;;23.60;92.10;;;;;;5065922;28;20035;-79
2022/05/22 09:47:54;;;;;;;1999.90;999.90;;;23.70;88.00;;;;;;5068280;28;20069;-79
2022/05/22 09:50:31;;;;;;;1999.90;999.90;;;23.80;82.60;;;;;;5057938;28;20059;-79
2022/05/22 09:53:26;;;;;;;1999.90;999.90;;;23.30;77.70;;;;;;5054843;28;20044;-79
2022/05/22 09:55:58;;;;;;;1999.90;999.90;;;22.70;81.50;;;;;;5060941;28;20040;-77
2022/05/22 09:58:48;;;;;;;1999.90;999.90;;;22.10;85.90;;;;;;5071660;28;20097;-80
2022/05/22 10:01:43;;;;;;;1999.90;999.90;;;21.60;91.20;;;;;;5073351;28;20068;-78
2022/05/22 10:04:32;;;;;;;1999.90;999.90;;;21.90;91.80;;;;;;5049364;28;20052;-78
2022/05/22 10:07:07;;;;;;;1999.90;999.90;;;22.50;88.80;;;;;;5079883;28;20601;-78
2022/05/22 10:10:00;;;;;;;1999.90;999.90;;;22.50;86.70;;;;;;5076805;28;20094;-78
2022/05/22 10:12:57;;;;;;;1999.90;999.90;;;22.40;84.70;;;;;;5065617;28;20040;-78
2022/05/22 10:15:29;;;;;;;1999.90;999.90;;;22.10;90.60;;;;;;5066945;28;20084;-78
2022/05/22 10:18:17;;;;;;;1999.90;999.90;;;21.80;87.20;;;;;;5039222;28;20435;-78
2022/05/22 10:21:05;;;;;;;1999.90;999.90;;;21.50;88.80;;;;;;5035586;28;20114;-78
2022/05/22 10:23:48;;;;;;;1999.90;999.90;;;21.30;91.00;;;;;;5053983;28;20466;-78
2022/05/22 10:26:27;;;;;;;1999.90;999.90;;;21.20;86.10;;;;;;5051542;28;20044;-78
2022/05/22 10:28:59;;;;;;;1999.90;999.90;;;21.30;90.20;;;;;;5043659;28;20044;-79
2022/05/22 10:31:41;;;;;;;1999.90;999.90;;;21.30;87.80;;;;;;5039963;28;20044;-78
2022/05/22 10:34:28;;;;;;;1999.90;999.90;;;21.30;88.30;;;;;;5040331;28;20093;-78
2022/05/22 10:37:02;;;;;;;1999.90;999.90;;;21.40;90.30;;;;;;5047061;28;20370;-78
2022/05/22 10:39:28;;;;;;;1999.90;999.90;;;21.60;91.20;;;;;;5042414;28;20451;-79
2022/05/22 10:45:40;;;;;;;1999.90;999.90;;;22.40;90.10;;;;;;5050246;28;20040;-79
2022/05/22 10:48:19;;;;;;;1999.90;999.90;;;22.80;86.90;;;;;;5038235;28;20060;-79
2022/05/22 10:51:02;;;;;;;1999.90;999.90;;;23.00;87.10;;;;;;5050732;28;20497;-78
2022/05/22 10:53:45;;;;;;;1999.90;999.90;;;23.10;82.30;;;;;;5044824;28;20047;-79
2022/05/22 10:56:14;;;;;;;1999.90;999.90;;;23.30;85.10;;;;;;5053465;28;20047;-79
2022/05/22 10:58:54;;;;;;;1999.90;999.90;;;23.50;86.80;;;;;;5053125;28;20036;-78
2022/05/22 11:01:23;;;;;;;1999.90;999.90;;;23.50;85.30;;;;;;5082455;28;20029;-78
2022/05/22 11:04:00;;;;;;;1999.90;999.90;;;23.60;71.80;;;;;;5068944;28;20032;-78
2022/05/22 11:06:26;;;;;;;1999.90;999.90;;;23.80;80.80;;;;;;5085252;28;20512;-78
2022/05/22 11:08:55;;;;;;;1999.90;999.90;;;23.70;74.90;;;;;;5072794;28;20036;-78
2022/05/22 11:11:30;;;;;;;1999.90;999.90;;;23.70;74.70;;;;;;5058070;28;20096;-78
2022/05/22 11:14:12;;;;;;;1999.90;999.90;;;23.50;71.60;;;;;;5077781;28;20065;-78
2022/05/22 11:16:39;;;;;;;1999.90;999.90;;;23.50;72.70;;;;;;5083625;28;20093;-78
2022/05/22 11:19:15;;;;;;;1999.90;999.90;;;23.70;73.30;;;;;;5071429;28;20036;-78
2022/05/22 11:22:18;;;;;;;1999.90;999.90;;;23.80;72.50;;;;;;5081502;28;20036;-78
2022/05/22 11:25:21;;;;;;;1999.90;999.90;;;24.00;74.30;;;;;;5067214;28;20139;-79
2022/05/22 11:28:32;;;;;;;1999.90;999.90;;;24.00;74.10;;;;;;5064179;28;20494;-78
2022/05/22 11:31:22;;;;;;;1999.90;999.90;;;24.00;67.40;;;;;;5065885;28;20281;-78
2022/05/22 11:34:15;;;;;;;1999.90;999.90;;;24.00;74.10;;;;;;5083690;28;20156;-77
2022/05/22 11:37:06;;;;;;;1999.90;999.90;;;24.10;71.40;;;;;;5079594;28;20040;-78
2022/05/22 11:40:09;;;;;;;1999.90;999.90;;;24.20;66.70;;;;;;5082532;28;20531;-79
2022/05/22 11:42:39;;;;;;;1999.90;999.90;;;24.20;71.80;;;;;;5074474;28;20039;-78
2022/05/22 11:45:24;;;;;;;1999.90;999.90;;;24.10;73.20;;;;;;5082379;28;20046;-79
2022/05/22 11:48:01;;;;;;;1999.90;999.90;;;24.20;71.40;;;;;;5084392;28;20522;-78
2022/05/22 11:50:47;;;;;;;1999.90;999.90;;;24.20;66.90;;;;;;5075860;28;20051;-78
2022/05/22 11:53:31;;;;;;;1999.90;999.90;;;24.20;70.10;;;;;;5088527;28;20040;-78
2022/05/22 11:56:18;;;;;;;1999.90;999.90;;;24.10;71.00;;;;;;5055286;28;20193;-77
2022/05/22 11:59:10;;;;;;;1999.90;999.90;;;24.00;72.70;;;;;;5060575;28;20040;-78
2022/05/22 12:01:43;;;;;;;1999.90;999.90;;;23.60;73.20;;;;;;5040384;28;20040;-78
2022/05/22 12:04:31;;;;;;;1999.90;999.90;;;23.40;74.20;;;;;;5055666;28;20093;-78
2022/05/22 12:07:28;;;;;;;1999.90;999.90;;;23.20;76.40;;;;;;5043740;28;20512;-78
2022/05/22 12:10:14;;;;;;;1999.90;999.90;;;23.20;73.90;;;;;;5062498;28;21698;-78
2022/05/22 12:12:48;;;;;;;1999.90;999.90;;;23.30;71.00;;;;;;5067908;28;20074;-78
2022/05/22 12:15:35;;;;;;;1999.90;999.90;;;23.10;72.80;;;;;;5051276;28;20040;-78
2022/05/22 12:18:38;;;;;;;1999.90;999.90;;;22.60;69.20;;;;;;5057867;28;20049;-78
2022/05/22 12:21:22;;;;;;;1999.90;999.90;;;22.60;75.80;;;;;;5048670;28;20052;-78
2022/05/22 12:24:34;;;;;;;1999.90;999.90;;;22.90;73.90;;;;;;5055890;28;20048;-78
2022/05/22 12:27:03;;;;;;;1999.90;999.90;;;23.10;72.20;;;;;;5058078;28;20044;-78
2022/05/22 12:29:41;;;;;;;1999.90;999.90;;;23.00;74.20;;;;;;5069845;28;20327;-78
2022/05/22 12:32:20;;;;;;;1999.90;999.90;;;22.80;72.00;;;;;;5092590;28;20063;-78
2022/05/22 12:34:49;;;;;;;1999.90;999.90;;;22.60;73.70;;;;;;5064052;28;20043;-78
2022/05/22 12:37:33;;;;;;;1999.90;999.90;;;22.40;72.30;;;;;;5060382;28;20044;-78
2022/05/22 12:40:09;;;;;;;1999.90;999.90;;;22.30;73.70;;;;;;5060603;28;20093;-78
2022/05/22 12:42:38;;;;;;;1999.90;999.90;;;22.20;73.20;;;;;;5036037;28;20122;-78
2022/05/22 12:45:05;;;;;;;1999.90;999.90;;;22.10;76.20;;;;;;5050465;28;20044;-78
2022/05/22 12:47:45;;;;;;;1999.90;999.90;;;21.90;75.80;;;;;;5049970;28;20047;-78
2022/05/22 12:50:24;;;;;;;1999.90;999.90;;;21.80;75.40;;;;;;5042320;28;20050;-78
2022/05/22 12:52:53;;;;;;;1999.90;999.90;;;21.80;75.20;;;;;;5064911;28;20047;-78
2022/05/22 12:55:32;;;;;;;1999.90;999.90;;;21.90;78.60;;;;;;5042649;28;20050;-78